createdAt,value
2018-06-20T00:02:09.657Z,18.96
2018-06-20T00:04:42.229Z,19.00
2018-06-20T00:07:15.277Z,19.16
2018-06-20T00:09:47.850Z,19.15
2018-06-20T00:12:34.322Z,19.13
2018-06-20T00:15:07.941Z,19.15
2018-06-20T00:17:40.592Z,19.21
2018-06-20T00:20:13.502Z,19.24
2018-06-20T00:22:48.435Z,19.19
2018-06-20T00:25:21.077Z,19.24
2018-06-20T00:27:54.977Z,19.22
2018-06-20T00:30:28.309Z,19.26
2018-06-20T00:33:00.836Z,19.31
2018-06-20T00:35:33.601Z,19.30
2018-06-20T00:38:06.652Z,19.35
2018-06-20T00:40:39.184Z,19.44
2018-06-20T00:43:14.185Z,19.35
2018-06-20T00:45:46.844Z,19.37
2018-06-20T00:48:19.292Z,19.27
2018-06-20T00:50:52.121Z,19.26
2018-06-20T00:53:25.651Z,19.21
2018-06-20T00:56:20.713Z,19.14
2018-06-20T00:58:53.500Z,19.11
2018-06-20T01:01:25.999Z,19.09
2018-06-20T01:03:58.611Z,19.07
2018-06-20T01:06:31.294Z,19.03
2018-06-20T01:09:08.333Z,19.00
2018-06-20T01:11:40.831Z,18.94
2018-06-20T01:14:13.713Z,18.91
2018-06-20T01:16:47.250Z,18.86
2018-06-20T01:19:19.739Z,18.85
2018-06-20T01:21:52.882Z,18.90
2018-06-20T01:24:26.954Z,18.98
2018-06-20T01:26:59.889Z,19.07
2018-06-20T01:29:36.448Z,19.24
2018-06-20T01:32:09.093Z,19.26
2018-06-20T01:34:42.349Z,19.19
2018-06-20T01:37:17.402Z,19.14
2018-06-20T01:39:49.824Z,19.15
2018-06-20T01:42:22.414Z,19.18
2018-06-20T01:44:56.074Z,19.24
2018-06-20T01:47:29.257Z,19.34
2018-06-20T01:50:01.936Z,19.32
2018-06-20T01:52:34.762Z,19.30
2018-06-20T01:55:09.011Z,19.28
2018-06-20T01:57:41.531Z,19.29
2018-06-20T02:00:16.356Z,19.25
2018-06-20T02:02:48.865Z,19.26
2018-06-20T02:05:23.987Z,19.23
2018-06-20T02:07:58.680Z,19.21
2018-06-20T02:10:31.370Z,19.22
2018-06-20T02:13:05.348Z,19.23
2018-06-20T02:15:39.009Z,19.22
2018-06-20T02:18:12.884Z,19.25
2018-06-20T02:20:47.193Z,19.23
2018-06-20T02:23:21.344Z,19.24
2018-06-20T02:25:58.537Z,19.23
2018-06-20T02:28:33.923Z,19.25
2018-06-20T02:31:07.106Z,19.26
2018-06-20T02:33:39.946Z,19.35
2018-06-20T02:36:19.142Z,19.33
2018-06-20T02:38:53.539Z,19.33
2018-06-20T02:41:31.462Z,19.33
2018-06-20T02:44:05.644Z,19.43
2018-06-20T02:46:38.227Z,19.39
2018-06-20T02:49:12.816Z,19.35
2018-06-20T02:51:46.333Z,19.33
2018-06-20T02:54:19.657Z,19.32
2018-06-20T02:56:54.377Z,19.31
2018-06-20T02:59:34.717Z,19.40
2018-06-20T03:02:07.365Z,19.38
2018-06-20T03:04:44.266Z,19.36
2018-06-20T03:07:18.513Z,19.35
2018-06-20T03:09:52.034Z,19.34
2018-06-20T03:12:25.658Z,19.35
2018-06-20T03:15:00.142Z,19.38
2018-06-20T03:17:35.545Z,19.37
2018-06-20T03:20:08.833Z,19.33
2018-06-20T03:22:43.162Z,19.46
2018-06-20T03:25:16.834Z,19.57
2018-06-20T03:27:52.524Z,19.69
2018-06-20T03:30:27.401Z,19.79
2018-06-20T03:33:00.808Z,19.72
2018-06-20T03:35:35.933Z,19.59
2018-06-20T03:38:09.469Z,19.47
2018-06-20T03:40:42.049Z,19.41
2018-06-20T03:43:15.787Z,19.38
2018-06-20T03:45:53.393Z,19.42
2018-06-20T03:48:26.195Z,19.38
2018-06-20T03:51:00.784Z,19.32
2018-06-20T03:53:33.817Z,19.28
2018-06-20T03:56:08.012Z,19.26
2018-06-20T03:58:43.191Z,19.36
2018-06-20T04:01:15.740Z,19.43
2018-06-20T04:03:49.178Z,19.35
2018-06-20T04:06:22.665Z,19.28
2018-06-20T04:08:56.079Z,19.25
2018-06-20T04:11:28.891Z,19.26
2018-06-20T04:14:02.868Z,19.28
2018-06-20T04:16:38.249Z,19.28
2018-06-20T04:19:11.759Z,19.30
2018-06-20T04:21:45.276Z,19.35
2018-06-20T04:24:17.857Z,19.41
2018-06-20T04:26:50.586Z,19.46
2018-06-20T04:29:23.033Z,19.52
2018-06-20T04:31:56.324Z,19.51
2018-06-20T04:34:30.952Z,19.51
2018-06-20T04:37:05.104Z,19.52
2018-06-20T04:39:41.196Z,19.58
2018-06-20T04:42:15.537Z,19.61
2018-06-20T04:44:50.556Z,19.70
2018-06-20T04:47:25.315Z,19.71
2018-06-20T04:49:59.165Z,19.75
2018-06-20T04:52:33.500Z,19.89
2018-06-20T04:55:06.798Z,19.90
2018-06-20T04:57:40.932Z,19.92
2018-06-20T05:00:17.202Z,19.96
2018-06-20T05:02:49.564Z,20.00
2018-06-20T05:05:22.010Z,20.04
2018-06-20T05:07:55.396Z,20.12
2018-06-20T05:10:28.592Z,20.20
2018-06-20T05:13:05.289Z,20.29
2018-06-20T05:15:38.755Z,20.30
2018-06-20T05:18:12.263Z,20.42
2018-06-20T05:20:53.686Z,20.33
2018-06-20T05:23:29.238Z,20.33
2018-06-20T05:26:01.692Z,20.45
2018-06-20T05:28:34.489Z,20.40
2018-06-20T05:31:08.899Z,20.34
2018-06-20T05:33:41.601Z,20.51
2018-06-20T05:36:14.400Z,20.69
2018-06-20T05:38:46.993Z,20.67
2018-06-20T05:41:21.424Z,20.70
2018-06-20T05:43:54.307Z,20.75
2018-06-20T05:46:27.132Z,20.79
2018-06-20T05:49:00.507Z,20.78
2018-06-20T05:51:33.835Z,20.86
2018-06-20T05:54:07.877Z,20.96
2018-06-20T05:56:41.794Z,20.97
2018-06-20T05:59:15.306Z,20.83
2018-06-20T06:01:49.044Z,20.80
2018-06-20T06:04:24.435Z,20.78
2018-06-20T06:06:57.901Z,20.89
2018-06-20T06:09:38.707Z,21.04
2018-06-20T06:12:12.673Z,21.18
2018-06-20T06:14:46.719Z,21.03
2018-06-20T06:17:19.572Z,20.97
2018-06-20T06:19:52.684Z,20.96
2018-06-20T06:22:26.820Z,21.03
2018-06-20T06:25:00.105Z,21.15
2018-06-20T06:27:33.409Z,21.20
2018-06-20T06:30:13.022Z,21.38
2018-06-20T06:32:48.908Z,21.55
2018-06-20T06:35:22.647Z,21.78
2018-06-20T06:37:57.412Z,21.76
2018-06-20T06:40:30.605Z,21.92
2018-06-20T06:43:04.878Z,22.11
2018-06-20T06:45:39.311Z,22.09
2018-06-20T06:48:16.137Z,22.04
2018-06-20T06:50:48.776Z,22.15
2018-06-20T06:53:22.902Z,22.00
2018-06-20T06:55:55.586Z,21.94
2018-06-20T06:58:28.820Z,22.21
2018-06-20T07:01:08.829Z,22.62
2018-06-20T07:03:45.095Z,22.88
2018-06-20T07:06:17.851Z,23.02
2018-06-20T07:08:52.480Z,23.27
2018-06-20T07:11:25.944Z,22.82
2018-06-20T07:14:02.535Z,22.83
2018-06-20T07:16:36.975Z,23.12
2018-06-20T07:19:09.479Z,22.95
2018-06-20T07:21:43.748Z,22.80
2018-06-20T07:24:18.892Z,22.83
2018-06-20T07:26:55.608Z,22.69
2018-06-20T07:29:29.947Z,22.68
2018-06-20T07:32:03.452Z,22.87
2018-06-20T07:34:36.584Z,22.71
2018-06-20T07:37:10.369Z,22.65
2018-06-20T07:39:43.830Z,22.49
2018-06-20T07:42:20.496Z,22.32
2018-06-20T07:44:53.150Z,22.30
2018-06-20T07:47:25.746Z,22.51
2018-06-20T07:49:58.679Z,22.57
2018-06-20T07:52:33.814Z,22.60
2018-06-20T07:55:07.640Z,22.86
2018-06-20T07:57:41.075Z,23.11
2018-06-20T08:00:20.319Z,23.74
2018-06-20T08:03:37.649Z,24.86
2018-06-20T08:07:01.848Z,26.49
2018-06-20T08:09:42.714Z,25.02
2018-06-20T08:12:22.245Z,24.19
2018-06-20T08:15:00.729Z,23.53
2018-06-20T08:17:40.906Z,23.68
2018-06-20T08:20:20.732Z,24.75
2018-06-20T08:22:55.974Z,24.90
2018-06-20T08:25:29.918Z,24.91
2018-06-20T08:28:02.507Z,24.06
2018-06-20T08:30:36.762Z,23.52
2018-06-20T08:33:10.607Z,23.46
2018-06-20T08:35:44.217Z,23.29
2018-06-20T08:38:23.453Z,23.19
2018-06-20T08:40:58.630Z,23.17
2018-06-20T08:43:34.137Z,23.36
2018-06-20T08:46:08.202Z,24.30
2018-06-20T08:48:40.803Z,25.28
2018-06-20T08:51:13.350Z,26.07
2018-06-20T08:53:45.964Z,26.03
2018-06-20T08:56:19.611Z,26.20
2018-06-20T08:58:54.453Z,26.35
2018-06-20T09:01:29.024Z,26.10
2018-06-20T09:04:10.606Z,26.48
2018-06-20T09:06:49.357Z,26.41
2018-06-20T09:09:27.948Z,26.24
2018-06-20T09:12:21.513Z,26.05
2018-06-20T09:15:14.571Z,25.63
2018-06-20T09:17:54.422Z,26.00
2018-06-20T09:20:27.612Z,26.17
2018-06-20T09:23:00.311Z,26.53
2018-06-20T09:25:33.729Z,25.93
2018-06-20T09:28:08.207Z,25.67
2018-06-20T09:30:41.662Z,26.46
2018-06-20T09:33:14.452Z,27.13
2018-06-20T09:35:48.415Z,26.84
2018-06-20T09:38:21.044Z,26.30
2018-06-20T09:40:58.050Z,26.39
2018-06-20T09:43:38.542Z,26.66
2018-06-20T09:46:12.997Z,27.33
2018-06-20T09:48:46.056Z,27.58
2018-06-20T09:51:19.553Z,27.83
2018-06-20T09:53:55.476Z,28.87
2018-06-20T09:56:33.444Z,29.50
2018-06-20T09:59:12.704Z,29.63
2018-06-20T10:01:52.779Z,29.80
2018-06-20T10:04:36.268Z,29.41
2018-06-20T10:07:33.492Z,29.46
2018-06-20T10:10:23.040Z,29.46
2018-06-20T10:13:17.121Z,29.21
2018-06-20T10:15:51.229Z,28.40
2018-06-20T10:18:24.426Z,27.96
2018-06-20T10:20:57.993Z,28.15
2018-06-20T10:23:31.543Z,27.95
2018-06-20T10:26:07.064Z,28.04
2018-06-20T10:28:40.503Z,28.20
2018-06-20T10:31:14.668Z,27.69
2018-06-20T10:33:47.694Z,27.63
2018-06-20T10:36:21.156Z,27.04
2018-06-20T10:38:56.289Z,27.19
2018-06-20T10:41:39.929Z,27.56
2018-06-20T10:44:15.656Z,27.69
2018-06-20T10:46:56.111Z,28.09
2018-06-20T10:49:35.628Z,28.73
2018-06-20T10:52:12.447Z,28.82
2018-06-20T10:54:48.167Z,28.32
2018-06-20T10:57:27.767Z,28.72
2018-06-20T11:00:07.602Z,29.05
2018-06-20T11:02:46.844Z,29.04
2018-06-20T11:05:25.293Z,28.98
2018-06-20T11:08:05.977Z,28.77
2018-06-20T11:10:44.797Z,28.40
2018-06-20T11:13:19.807Z,27.93
2018-06-20T11:15:52.456Z,27.64
2018-06-20T11:18:28.037Z,27.75
2018-06-20T11:21:05.268Z,28.14
2018-06-20T11:24:09.683Z,27.68
2018-06-20T11:26:47.319Z,27.28
2018-06-20T11:29:22.746Z,27.38
2018-06-20T11:31:56.777Z,27.85
2018-06-20T11:34:29.713Z,27.66
2018-06-20T11:37:02.995Z,27.70
2018-06-20T11:39:35.965Z,28.19
2018-06-20T11:42:28.612Z,28.35
2018-06-20T11:45:10.644Z,28.53
2018-06-20T11:47:45.337Z,28.89
2018-06-20T11:50:22.913Z,28.51
2018-06-20T11:53:20.413Z,28.58
2018-06-20T11:56:04.453Z,28.57
2018-06-20T11:58:44.770Z,28.92
2018-06-20T12:01:28.029Z,29.02
2018-06-20T12:04:07.468Z,28.76
2018-06-20T12:06:47.951Z,28.92
2018-06-20T12:09:27.920Z,28.73
2018-06-20T12:12:06.859Z,29.31
2018-06-20T12:14:46.532Z,29.87
2018-06-20T12:17:25.089Z,29.67
2018-06-20T12:20:08.238Z,29.18
2018-06-20T12:22:46.616Z,28.97
2018-06-20T12:25:26.268Z,29.26
2018-06-20T12:28:09.305Z,29.26
2018-06-20T12:31:00.813Z,29.45
2018-06-20T12:33:41.168Z,29.42
2018-06-20T12:36:23.297Z,29.31
2018-06-20T12:39:00.832Z,28.95
2018-06-20T12:41:39.618Z,29.70
2018-06-20T12:44:42.066Z,30.19
2018-06-20T12:47:25.143Z,29.84
2018-06-20T12:50:03.672Z,30.06
2018-06-20T12:52:39.859Z,30.90
2018-06-20T12:55:16.775Z,31.32
2018-06-20T12:57:51.708Z,30.70
2018-06-20T13:00:26.972Z,30.73
2018-06-20T13:03:02.601Z,30.95
2018-06-20T13:05:37.563Z,30.91
2018-06-20T13:08:15.601Z,30.87
2018-06-20T13:10:48.901Z,30.48
2018-06-20T13:13:22.196Z,30.25
2018-06-20T13:16:00.407Z,30.40
2018-06-20T13:18:37.829Z,31.15
2018-06-20T13:21:11.721Z,31.04
2018-06-20T13:23:49.439Z,31.19
2018-06-20T13:26:27.592Z,31.13
2018-06-20T13:29:08.285Z,31.35
2018-06-20T13:32:12.502Z,31.47
2018-06-20T13:34:56.612Z,31.27
2018-06-20T13:37:35.325Z,31.51
2018-06-20T13:40:15.887Z,31.71
2018-06-20T13:42:56.197Z,31.95
2018-06-20T13:45:43.447Z,32.02
2018-06-20T13:48:33.487Z,31.96
2018-06-20T13:51:07.668Z,32.32
2018-06-20T13:53:40.958Z,31.77
2018-06-20T13:56:21.227Z,31.73
2018-06-20T13:58:53.847Z,31.69
2018-06-20T14:01:31.176Z,31.56
2018-06-20T14:04:05.205Z,31.77
2018-06-20T14:06:38.709Z,32.14
2018-06-20T14:09:11.763Z,32.26
2018-06-20T14:11:47.633Z,32.53
2018-06-20T14:14:20.754Z,32.66
2018-06-20T14:16:53.738Z,32.86
2018-06-20T14:19:32.276Z,32.49
2018-06-20T14:22:06.680Z,32.52
2018-06-20T14:24:40.062Z,32.89
2018-06-20T14:27:13.569Z,32.60
2018-06-20T14:29:46.431Z,32.64
2018-06-20T14:32:26.647Z,32.57
2018-06-20T14:35:07.267Z,31.82
2018-06-20T14:37:45.725Z,32.03
2018-06-20T14:40:26.358Z,32.74
2018-06-20T14:43:01.396Z,32.78
2018-06-20T14:45:39.785Z,32.39
2018-06-20T14:48:12.366Z,32.10
2018-06-20T14:50:47.576Z,31.99
2018-06-20T14:53:22.749Z,32.02
2018-06-20T14:55:58.168Z,32.48
2018-06-20T14:58:31.723Z,32.92
2018-06-20T15:01:05.740Z,32.98
2018-06-20T15:03:38.148Z,32.60
2018-06-20T15:06:10.910Z,32.36
2018-06-20T15:08:46.199Z,32.00
2018-06-20T15:11:21.148Z,32.10
2018-06-20T15:13:56.529Z,32.09
2018-06-20T15:16:36.328Z,31.92
2018-06-20T15:19:12.393Z,31.84
2018-06-20T15:21:47.357Z,32.06
2018-06-20T15:24:21.322Z,32.30
2018-06-20T15:27:00.305Z,32.48
2018-06-20T15:29:50.681Z,32.54
2018-06-20T15:32:30.365Z,32.58
2018-06-20T15:35:11.282Z,32.44
2018-06-20T15:37:51.745Z,32.45
2018-06-20T15:40:26.017Z,32.48
2018-06-20T15:43:06.649Z,32.32
2018-06-20T15:45:39.878Z,32.38
2018-06-20T15:48:13.983Z,32.77
2018-06-20T15:50:48.273Z,33.07
2018-06-20T15:53:23.500Z,32.95
2018-06-20T15:55:59.507Z,33.32
2018-06-20T15:58:34.820Z,33.51
2018-06-20T16:01:10.103Z,33.60
2018-06-20T16:04:00.418Z,33.42
2018-06-20T16:06:39.410Z,33.09
2018-06-20T16:09:21.968Z,33.10
2018-06-20T16:12:06.222Z,33.23
2018-06-20T16:14:41.518Z,33.24
2018-06-20T16:17:18.426Z,32.84
2018-06-20T16:20:07.637Z,32.87
2018-06-20T16:22:53.143Z,32.90
2018-06-20T16:35:45.592Z,33.26
2018-06-20T16:38:24.060Z,32.89
2018-06-20T16:41:27.499Z,32.34
2018-06-20T16:44:05.485Z,32.68
2018-06-20T16:46:40.000Z,32.97
2018-06-20T16:49:15.019Z,32.95
2018-06-20T16:51:50.746Z,32.48
2018-06-20T16:54:28.891Z,32.17
2018-06-20T16:57:08.695Z,32.47
2018-06-20T17:00:04.872Z,32.57
2018-06-20T17:02:42.287Z,32.45
2018-06-20T17:05:16.579Z,32.53
2018-06-20T17:07:57.823Z,32.69
2018-06-20T17:10:43.795Z,32.48
2018-06-20T17:13:23.659Z,32.49
2018-06-20T17:16:10.100Z,32.69
2018-06-20T17:18:49.714Z,32.68
2018-06-20T17:21:28.569Z,32.27
2018-06-20T17:24:11.043Z,32.01
2018-06-20T17:26:44.838Z,31.94
2018-06-20T17:29:30.831Z,31.99
2018-06-20T17:32:09.879Z,31.83
2018-06-20T17:34:45.371Z,31.82
2018-06-20T17:37:21.637Z,31.46
2018-06-20T17:39:58.237Z,31.09
2018-06-20T17:42:33.669Z,30.90
2018-06-20T17:45:09.080Z,30.90
2018-06-20T17:47:44.959Z,30.88
2018-06-20T17:50:20.477Z,30.81
2018-06-20T17:53:08.473Z,30.86
2018-06-20T17:55:43.802Z,30.90
2018-06-20T17:58:21.103Z,30.74
2018-06-20T18:01:02.630Z,30.41
2018-06-20T18:03:42.575Z,30.22
2018-06-20T18:06:24.942Z,30.27
2018-06-20T18:09:05.409Z,30.49
2018-06-20T18:11:50.416Z,30.62
2018-06-20T18:14:33.098Z,30.67
2018-06-20T18:17:11.188Z,30.46
2018-06-20T18:19:48.570Z,30.37
2018-06-20T18:22:21.717Z,30.12
2018-06-20T18:24:55.114Z,29.95
2018-06-20T18:27:28.602Z,29.83
2018-06-20T18:30:06.795Z,29.63
2018-06-20T18:32:43.941Z,29.28
2018-06-20T18:35:19.583Z,28.93
2018-06-20T18:37:55.589Z,28.62
2018-06-20T18:40:31.664Z,28.45
2018-06-20T18:43:09.165Z,28.35
2018-06-20T18:45:41.716Z,28.26
2018-06-20T18:48:26.909Z,28.18
2018-06-20T18:51:04.599Z,28.08
2018-06-20T18:53:40.552Z,27.99
2018-06-20T18:56:15.701Z,27.96
2018-06-20T18:58:55.516Z,27.78
2018-06-20T19:01:37.594Z,27.68
2018-06-20T19:04:23.249Z,27.62
2018-06-20T19:07:04.502Z,27.57
2018-06-20T19:09:48.369Z,27.51
2018-06-20T19:12:28.452Z,27.50
2018-06-20T19:15:09.888Z,27.51
2018-06-20T19:17:46.488Z,27.64
2018-06-20T19:20:33.490Z,27.81
2018-06-20T19:23:15.654Z,27.91
2018-06-20T19:25:51.166Z,27.88
2018-06-20T19:28:27.872Z,27.73
2018-06-20T19:31:10.260Z,27.43
2018-06-20T19:33:44.022Z,27.15
2018-06-20T19:36:16.717Z,26.99
2018-06-20T19:38:54.002Z,26.92
2018-06-20T19:41:28.795Z,26.90
2018-06-20T19:44:17.935Z,26.91
2018-06-20T19:46:54.785Z,26.85
2018-06-20T19:49:31.657Z,26.69
2018-06-20T19:52:11.596Z,26.71
2018-06-20T19:54:47.553Z,26.71
2018-06-20T19:57:21.676Z,26.47
2018-06-20T19:59:54.472Z,26.32
2018-06-20T20:02:41.192Z,26.08
2018-06-20T20:05:18.880Z,25.93
2018-06-20T20:10:26.195Z,25.37
2018-06-20T20:13:01.933Z,24.92
2018-06-20T20:15:36.791Z,24.61
2018-06-20T20:18:20.931Z,24.47
2018-06-20T20:21:10.175Z,24.48
2018-06-20T20:23:50.670Z,24.70
2018-06-20T20:26:23.798Z,24.66
2018-06-20T20:29:14.545Z,24.66
2018-06-20T20:32:14.399Z,24.61
2018-06-20T20:34:52.142Z,24.51
2018-06-20T20:37:27.312Z,24.43
2018-06-20T20:40:04.134Z,24.42
2018-06-20T20:42:41.925Z,24.28
2018-06-20T20:45:22.849Z,24.07
2018-06-20T20:48:04.751Z,23.84
2018-06-20T20:50:44.309Z,23.74
2018-06-20T20:53:26.273Z,23.60
2018-06-20T20:56:01.628Z,23.49
2018-06-20T20:58:43.062Z,23.34
2018-06-20T21:01:22.324Z,23.31
2018-06-20T21:03:57.119Z,23.25
2018-06-20T21:06:35.091Z,23.28
2018-06-20T21:09:29.629Z,23.12
2018-06-20T21:12:12.351Z,22.90
2018-06-20T21:14:45.993Z,22.63
2018-06-20T21:17:20.548Z,22.31
2018-06-20T21:20:05.591Z,22.01
2018-06-20T21:22:42.065Z,21.83
2018-06-20T21:25:15.323Z,21.68
2018-06-20T21:27:55.069Z,21.53
2018-06-20T21:30:31.835Z,21.49
2018-06-20T21:33:16.075Z,21.59
2018-06-20T21:35:50.230Z,21.55
2018-06-20T21:38:26.545Z,21.42
2018-06-20T21:41:02.529Z,21.24
2018-06-20T21:43:37.706Z,21.14
2018-06-20T21:46:14.030Z,21.06
2018-06-20T21:48:51.759Z,21.02
2018-06-20T21:51:25.407Z,21.11
2018-06-20T21:54:01.365Z,21.07
2018-06-20T21:56:35.893Z,20.88
2018-06-20T21:59:14.359Z,20.65
2018-06-20T22:01:48.659Z,20.43
2018-06-20T22:04:25.289Z,20.31
2018-06-20T22:07:02.394Z,20.21
2018-06-20T22:09:35.381Z,20.10
2018-06-20T22:12:19.996Z,20.12
2018-06-20T22:14:55.610Z,20.09
2018-06-20T22:17:38.161Z,20.06
2018-06-20T22:20:15.002Z,19.94
2018-06-20T22:22:49.170Z,19.83
2018-06-20T22:25:27.135Z,19.81
2018-06-20T22:28:01.893Z,19.83
2018-06-20T22:30:37.142Z,19.81
2018-06-20T22:33:24.795Z,19.87
2018-06-20T22:36:01.293Z,19.87
2018-06-20T22:38:38.109Z,19.75
2018-06-20T22:41:12.002Z,19.49
2018-06-20T22:43:45.390Z,19.28
2018-06-20T22:46:23.219Z,19.10
2018-06-20T22:48:55.932Z,19.05
2018-06-20T22:51:32.021Z,19.11
2018-06-20T22:54:08.044Z,19.10
2018-06-20T22:56:45.676Z,19.01
2018-06-20T22:59:20.958Z,19.06
2018-06-20T23:01:54.813Z,18.94
2018-06-20T23:04:29.281Z,18.70
2018-06-20T23:07:02.624Z,18.50
2018-06-20T23:09:37.447Z,18.47
2018-06-20T23:12:13.208Z,18.31
2018-06-20T23:14:49.249Z,18.10
2018-06-20T23:17:23.906Z,17.92
2018-06-20T23:19:59.332Z,17.77
2018-06-20T23:22:31.993Z,17.62
2018-06-20T23:25:05.246Z,17.68
2018-06-20T23:27:39.237Z,17.68
2018-06-20T23:30:13.393Z,17.72
2018-06-20T23:32:47.952Z,17.76
2018-06-20T23:35:21.618Z,17.86
2018-06-20T23:37:55.564Z,17.83
2018-06-20T23:40:29.690Z,17.79
2018-06-20T23:43:03.446Z,17.77
2018-06-20T23:45:37.325Z,17.71
2018-06-20T23:48:10.534Z,17.65
2018-06-20T23:50:44.763Z,17.57
2018-06-20T23:53:17.546Z,17.50
2018-06-20T23:55:59.604Z,17.50
2018-06-20T23:58:34.008Z,17.74
